Time,TemperatureF,DewpointF,PressureIn,WindDirection,WindDirectionDegrees,WindSpeedMPH,WindSpeedGustMPH,Humidity,HourlyPrecipIn,Conditions,Clouds,dailyrainin,SoftwareType,DateUTC
2013-05-06 00:04:00,61.9,48.7,29.77,West,270,2.7,-999.0,62,-99.99,,,0.00,Acu-Link.com,2013-05-06 04:04:00,
2013-05-06 00:19:00,61.7,49.0,29.78,WNW,292,2.2,-999.0,63,-99.99,,,0.00,Acu-Link.com,2013-05-06 04:19:00,
2013-05-06 00:34:00,61.3,49.0,29.78,West,270,0.0,-999.0,64,-99.99,,,0.00,Acu-Link.com,2013-05-06 04:34:00,
2013-05-06 00:49:00,61.3,49.4,29.78,SW,225,3.2,-999.0,65,-99.99,,,0.00,Acu-Link.com,2013-05-06 04:49:00,
2013-05-06 01:04:00,61.5,50.0,29.78,WNW,292,1.7,-999.0,66,-99.99,,,0.00,Acu-Link.com,2013-05-06 05:04:00,
2013-05-06 01:19:00,61.3,50.2,29.77,West,270,2.7,-999.0,67,-99.99,,,0.00,Acu-Link.com,2013-05-06 05:19:00,
2013-05-06 01:35:00,61.3,50.6,29.77,WNW,292,0.0,-999.0,68,-99.99,,,0.00,Acu-Link.com,2013-05-06 05:35:00,
2013-05-06 01:50:00,60.8,50.6,29.77,West,270,0.0,-999.0,69,-99.99,,,0.00,Acu-Link.com,2013-05-06 05:50:00,
2013-05-06 02:05:00,60.4,51.0,29.76,SW,225,0.0,-999.0,71,-99.99,,,0.00,Acu-Link.com,2013-05-06 06:05:00,
2013-05-06 02:21:00,59.9,50.8,29.76,West,270,0.0,-999.0,72,-99.99,,,0.00,Acu-Link.com,2013-05-06 06:21:00,
2013-05-06 02:36:00,59.5,51.2,29.76,WNW,292,0.0,-999.0,74,-99.99,,,0.00,Acu-Link.com,2013-05-06 06:36:00,
2013-05-06 02:51:00,59.2,50.9,29.76,West,270,0.0,-999.0,74,-99.99,,,0.00,Acu-Link.com,2013-05-06 06:51:00,
2013-05-06 03:06:00,58.1,50.9,29.75,South,180,0.0,-999.0,77,-99.99,,,0.00,Acu-Link.com,2013-05-06 07:06:00,
2013-05-06 03:22:00,57.9,51.1,29.75,South,180,0.0,-999.0,78,-99.99,,,0.00,Acu-Link.com,2013-05-06 07:22:00,
2013-05-06 03:37:00,57.4,51.3,29.76,West,270,0.0,-999.0,80,-99.99,,,0.00,Acu-Link.com,2013-05-06 07:37:00,
2013-05-06 03:52:00,57.4,51.6,29.77,West,270,0.0,-999.0,81,-99.99,,,0.00,Acu-Link.com,2013-05-06 07:52:00,
2013-05-06 04:07:00,57.6,51.8,29.76,WNW,292,0.0,-999.0,81,-99.99,,,0.00,Acu-Link.com,2013-05-06 08:07:00,
2013-05-06 04:22:00,57.9,52.1,29.76,South,180,0.0,-999.0,81,-99.99,,,0.00,Acu-Link.com,2013-05-06 08:22:00,
2013-05-06 04:38:00,57.4,51.9,29.77,SSE,157,0.0,-999.0,82,-99.99,,,0.00,Acu-Link.com,2013-05-06 08:38:00,
2013-05-06 04:53:00,57.2,52.4,29.77,ESE,112,1.7,-999.0,84,-99.99,,,0.00,Acu-Link.com,2013-05-06 08:53:00,
2013-05-06 05:08:00,57.0,52.5,29.77,SW,225,0.0,-999.0,85,-99.99,,,0.00,Acu-Link.com,2013-05-06 09:08:00,
2013-05-06 05:23:00,57.6,53.8,29.77,South,180,0.0,-999.0,87,-99.99,,,0.00,Acu-Link.com,2013-05-06 09:23:00,
2013-05-06 05:39:00,57.9,54.1,29.78,South,180,0.0,-999.0,87,-99.99,,,0.00,Acu-Link.com,2013-05-06 09:39:00,
2013-05-06 05:54:00,58.5,54.3,29.78,SW,225,0.0,-999.0,86,-99.99,,,0.00,Acu-Link.com,2013-05-06 09:54:00,
2013-05-06 06:09:00,58.6,54.4,29.79,SE,135,0.0,-999.0,86,-99.99,,,0.00,Acu-Link.com,2013-05-06 10:09:00,
2013-05-06 06:25:00,58.8,54.6,29.80,West,270,0.0,-999.0,86,-99.99,,,0.00,Acu-Link.com,2013-05-06 10:25:00,
2013-05-06 06:40:00,59.2,55.0,29.80,South,180,0.0,-999.0,86,-99.99,,,0.00,Acu-Link.com,2013-05-06 10:40:00,
2013-05-06 06:55:00,59.0,54.8,29.80,ESE,112,0.0,-999.0,86,-99.99,,,0.00,Acu-Link.com,2013-05-06 10:55:00,
2013-05-06 07:10:00,59.5,55.3,29.81,SW,225,0.0,-999.0,86,-99.99,,,0.00,Acu-Link.com,2013-05-06 11:10:00,
2013-05-06 07:26:00,62.6,57.4,29.82,SSW,202,0.0,-999.0,83,-99.99,,,0.00,Acu-Link.com,2013-05-06 11:26:00,
2013-05-06 07:41:00,65.5,57.7,29.82,SSW,202,0.0,-999.0,76,-99.99,,,0.00,Acu-Link.com,2013-05-06 11:41:00,
2013-05-06 07:56:00,66.9,58.3,29.82,South,180,1.1,-999.0,74,-99.99,,,0.00,Acu-Link.com,2013-05-06 11:56:00,
2013-05-06 08:11:00,68.5,58.3,29.83,SSE,157,2.7,-999.0,70,-99.99,,,0.00,Acu-Link.com,2013-05-06 12:11:00,
2013-05-06 08:26:00,70.9,59.4,29.83,SSW,202,2.2,-999.0,67,-99.99,,,0.00,Acu-Link.com,2013-05-06 12:26:00,
2013-05-06 08:42:00,69.6,59.0,29.84,SSW,202,2.2,-999.0,69,-99.99,,,0.00,Acu-Link.com,2013-05-06 12:42:00,
2013-05-06 08:57:00,73.2,59.8,29.84,West,270,2.7,-999.0,63,-99.99,,,0.00,Acu-Link.com,2013-05-06 12:57:00,
2013-05-06 09:12:00,72.9,60.0,29.83,SSE,157,3.7,-999.0,64,-99.99,,,0.00,Acu-Link.com,2013-05-06 13:12:00,
2013-05-06 09:27:00,71.4,59.9,29.84,WSW,247,2.2,-999.0,67,-99.99,,,0.00,Acu-Link.com,2013-05-06 13:27:00,
2013-05-06 09:43:00,72.0,60.4,29.84,West,270,0.0,-999.0,67,-99.99,,,0.00,Acu-Link.com,2013-05-06 13:43:00,
2013-05-06 09:58:00,72.0,60.0,29.84,WSW,247,3.2,-999.0,66,-99.99,,,0.00,Acu-Link.com,2013-05-06 13:58:00,
2013-05-06 10:13:00,73.2,60.3,29.85,ENE,67,4.7,-999.0,64,-99.99,,,0.00,Acu-Link.com,2013-05-06 14:13:00,
2013-05-06 10:28:00,74.7,60.3,29.84,NW,315,2.7,-999.0,61,-99.99,,,0.00,Acu-Link.com,2013-05-06 14:28:00,
2013-05-06 10:43:00,76.5,61.1,29.84,WNW,292,3.7,-999.0,59,-99.99,,,0.00,Acu-Link.com,2013-05-06 14:43:00,
2013-05-06 10:59:00,78.1,61.1,29.84,ESE,112,2.7,-999.0,56,-99.99,,,0.00,Acu-Link.com,2013-05-06 14:59:00,
2013-05-06 11:14:00,78.6,59.5,29.84,SSE,157,2.7,-999.0,52,-99.99,,,0.00,Acu-Link.com,2013-05-06 15:14:00,
2013-05-06 11:29:00,77.7,59.2,29.84,NW,315,5.8,-999.0,53,-99.99,,,0.00,Acu-Link.com,2013-05-06 15:29:00,
2013-05-06 11:45:00,78.6,60.5,29.83,WNW,292,1.7,-999.0,54,-99.99,,,0.00,Acu-Link.com,2013-05-06 15:45:00,
2013-05-06 12:00:00,79.7,57.7,29.83,NW,315,4.2,-999.0,47,-99.99,,,0.00,Acu-Link.com,2013-05-06 16:00:00,
2013-05-06 12:15:00,81.9,59.1,29.84,NE,45,1.7,-999.0,46,-99.99,,,0.00,Acu-Link.com,2013-05-06 16:15:00,
2013-05-06 12:30:00,81.3,59.1,29.83,SW,225,1.7,-999.0,47,-99.99,,,0.00,Acu-Link.com,2013-05-06 16:30:00,
2013-05-06 12:46:00,80.2,56.3,29.83,WNW,292,6.3,-999.0,44,-99.99,,,0.00,Acu-Link.com,2013-05-06 16:46:00,
2013-05-06 13:01:00,82.6,57.8,29.82,South,180,7.3,-999.0,43,-99.99,,,0.00,Acu-Link.com,2013-05-06 17:01:00,
2013-05-06 13:16:00,81.5,57.5,29.82,West,270,5.3,-999.0,44,-99.99,,,0.00,Acu-Link.com,2013-05-06 17:16:00,
2013-05-06 13:31:00,81.3,57.9,29.80,NNW,337,6.3,-999.0,45,-99.99,,,0.00,Acu-Link.com,2013-05-06 17:31:00,
2013-05-06 14:34:00,83.3,58.4,29.79,SSE,157,2.7,-999.0,43,-99.99,,,0.00,Acu-Link.com,2013-05-06 18:34:00,
2013-05-06 15:08:00,81.1,55.8,29.77,WSW,247,5.3,-999.0,42,-99.99,,,0.00,Acu-Link.com,2013-05-06 19:08:00,
2013-05-06 15:24:00,84.2,57.2,29.77,WNW,292,4.7,-999.0,40,-99.99,,,0.00,Acu-Link.com,2013-05-06 19:24:00,
2013-05-06 15:39:00,82.4,56.3,29.76,North,0,5.8,-999.0,41,-99.99,,,0.00,Acu-Link.com,2013-05-06 19:39:00,
2013-05-06 15:54:00,84.4,56.7,29.76,SSE,157,5.8,-999.0,39,-99.99,,,0.00,Acu-Link.com,2013-05-06 19:54:00,
2013-05-06 16:10:00,82.0,56.0,29.74,WSW,247,6.8,-999.0,41,-99.99,,,0.00,Acu-Link.com,2013-05-06 20:10:00,
2013-05-06 16:25:00,80.8,56.2,29.74,West,270,2.2,-999.0,43,-99.99,,,0.00,Acu-Link.com,2013-05-06 20:25:00,
2013-05-06 16:40:00,80.8,55.5,29.75,SSW,202,3.2,-999.0,42,-99.99,,,0.00,Acu-Link.com,2013-05-06 20:40:00,
2013-05-06 16:55:00,83.7,56.1,29.73,ESE,112,2.2,-999.0,39,-99.99,,,0.00,Acu-Link.com,2013-05-06 20:55:00,
2013-05-06 17:11:00,83.3,55.7,29.75,NW,315,3.2,-999.0,39,-99.99,,,0.00,Acu-Link.com,2013-05-06 21:11:00,
2013-05-06 17:26:00,82.9,52.4,29.74,NE,45,5.8,-999.0,35,-99.99,,,0.00,Acu-Link.com,2013-05-06 21:26:00,
2013-05-06 17:41:00,83.7,51.5,29.74,South,180,6.3,-999.0,33,-99.99,,,0.00,Acu-Link.com,2013-05-06 21:41:00,
2013-05-06 17:56:00,84.2,53.5,29.75,ENE,67,2.2,-999.0,35,-99.99,,,0.00,Acu-Link.com,2013-05-06 21:56:00,
2013-05-06 18:12:00,84.0,52.6,29.74,SSW,202,4.7,-999.0,34,-99.99,,,0.00,Acu-Link.com,2013-05-06 22:12:00,
2013-05-06 18:27:00,82.4,50.4,29.75,SW,225,2.7,-999.0,33,-99.99,,,0.00,Acu-Link.com,2013-05-06 22:27:00,
2013-05-06 18:42:00,81.9,51.5,29.74,NNW,337,4.7,-999.0,35,-99.99,,,0.00,Acu-Link.com,2013-05-06 22:42:00,
2013-05-06 18:57:00,80.6,49.6,29.75,WNW,292,4.2,-999.0,34,-99.99,,,0.00,Acu-Link.com,2013-05-06 22:57:00,
2013-05-06 19:12:00,78.3,49.1,29.73,SSE,157,1.1,-999.0,36,-99.99,,,0.00,Acu-Link.com,2013-05-06 23:12:00,
2013-05-06 19:28:00,76.6,48.4,29.74,WSW,247,4.2,-999.0,37,-99.99,,,0.00,Acu-Link.com,2013-05-06 23:28:00,
2013-05-06 19:43:00,75.6,48.9,29.75,West,270,3.2,-999.0,39,-99.99,,,0.00,Acu-Link.com,2013-05-06 23:43:00,
2013-05-06 19:58:00,74.5,48.6,29.76,SW,225,0.0,-999.0,40,-99.99,,,0.00,Acu-Link.com,2013-05-06 23:58:00,
2013-05-06 20:13:00,73.2,48.7,29.77,WSW,247,2.2,-999.0,42,-99.99,,,0.00,Acu-Link.com,2013-05-07 00:13:00,
2013-05-06 20:29:00,72.3,49.8,29.77,WNW,292,1.1,-999.0,45,-99.99,,,0.00,Acu-Link.com,2013-05-07 00:29:00,
2013-05-06 20:44:00,71.1,51.0,29.78,WSW,247,1.7,-999.0,49,-99.99,,,0.00,Acu-Link.com,2013-05-07 00:44:00,
2013-05-06 20:59:00,70.2,51.2,29.79,West,270,0.0,-999.0,51,-99.99,,,0.00,Acu-Link.com,2013-05-07 00:59:00,
2013-05-06 21:14:00,69.4,51.0,29.79,WNW,292,0.0,-999.0,52,-99.99,,,0.00,Acu-Link.com,2013-05-07 01:14:00,
2013-05-06 21:29:00,68.7,50.9,29.80,West,270,2.2,-999.0,53,-99.99,,,0.00,Acu-Link.com,2013-05-07 01:29:00,
2013-05-06 21:45:00,68.2,50.9,29.80,NNW,337,1.7,-999.0,54,-99.99,,,0.00,Acu-Link.com,2013-05-07 01:45:00,
2013-05-06 22:00:00,67.6,50.4,29.82,West,270,0.0,-999.0,54,-99.99,,,0.00,Acu-Link.com,2013-05-07 02:00:00,
2013-05-06 22:15:00,67.3,50.6,29.83,West,270,4.2,-999.0,55,-99.99,,,0.00,Acu-Link.com,2013-05-07 02:15:00,
2013-05-06 22:30:00,66.7,51.0,29.83,West,270,1.7,-999.0,57,-99.99,,,0.00,Acu-Link.com,2013-05-07 02:30:00,
2013-05-06 22:45:00,65.8,50.6,29.83,WNW,292,1.1,-999.0,58,-99.99,,,0.00,Acu-Link.com,2013-05-07 02:45:00,
2013-05-06 23:00:00,64.9,50.2,29.83,SW,225,2.7,-999.0,59,-99.99,,,0.00,Acu-Link.com,2013-05-07 03:00:00,
2013-05-06 23:15:00,64.4,50.7,29.84,West,270,0.0,-999.0,61,-99.99,,,0.00,Acu-Link.com,2013-05-07 03:15:00,
2013-05-06 23:31:00,63.5,50.7,29.84,SSW,202,0.0,-999.0,63,-99.99,,,0.00,Acu-Link.com,2013-05-07 03:31:00,
2013-05-06 23:46:00,62.8,50.9,29.84,West,270,0.0,-999.0,65,-99.99,,,0.00,Acu-Link.com,2013-05-07 03:46:00,